Battle Ground, Indiana
Current Conditions -  °F | °C
As of 11:54 PM on Tuesday 25 Nov 2014 (Local Time) from KLAF Reporting Station
Overcast Overcast  
Wind Chill: 25°   Ceiling: 1600
Heat Index: 25°   Visibility: 10mi
Dew Point: 19°   Wind: 3mph
Humidity: 78%   Direction: 240°WSW
Pressure: 30.2"   Gusts: NA
Location:  40.51°N, 86.84°W
Report Text: KLAF 260454Z AUTO 24003KT 10SM OVC016 M04/M07 A3020 RMK AO2 SLP234 T10391072 400001039 TSNO
Loading
Personal Weather Stations






























Interactive Weather Map New forecast layout! Learn more

10-Day Weather Forecast

Advertisements
Track Severe Weather on mobile